Flight Track Log - Related Links

Times and Time Zones

All times are in EDT time to prevent confusion due to time zone crossing. See the GJS3615 flight status page for this flight to view local times or setup timezone preferences in your user account.

Time Position Orientation Groundspeed Altitude Reporting Facility
EDT Latitude Longitude Course Direction KTS MPH feet Rate Location/Type
Thu 09:18:33 AM 43.1664 -89.2644 164° South 200 230 4,100  Level Chicago Center
Thu 09:19:35 AM 43.1561 -89.1669 98° East 240 276 6,400 2,661 Climbing Chicago Center
Thu 09:20:00 AM 42.8390 -89.2167 180° South  Level FlightAware Approximate
Thu 09:20:37 AM 43.1447 -89.0569 98° East 280 322 9,600  Level Chicago Center
Thu 09:21:00 AM 42.7644 -89.1891 164° South  Level FlightAware Approximate
Thu 09:21:38 AM 43.0742 -89.0050 152° Southeast 305 351 12,600  Level Chicago Center
Thu 09:22:00 AM 42.6900 -89.1593 164° South  Level FlightAware Approximate
Thu 09:22:40 AM 43.0131 -89.0678 217° Southwest 285 328 13,000  Level Chicago Center
Thu 09:23:00 AM 42.6156 -89.1295 164° South  Level FlightAware Approximate
Thu 09:23:42 AM 42.9256 -89.1036 197° South 303 349 13,100  Level Chicago Center
Thu 09:24:44 AM 42.8400 -89.1047 181° South 309 356 13,000 -48 Descending Chicago Center
Thu 09:25:46 AM 42.7508 -89.1047 180° South 318 366 13,000 48 Level Chicago Center
Thu 09:26:48 AM 42.6544 -89.1058 180° South 344 396 13,100  Climbing Chicago Center
Thu 09:27:50 AM 42.5539 -89.0678 164° South 395 455 13,000  Descending Chicago Center
Thu 09:28:52 AM 42.4994 -88.9108 115° Southeast 399 459 13,100 -290 Climbing Chicago Center
Thu 09:29:54 AM 42.4575 -88.7728 112° Southeast 398 458 12,400 -968 Descending Chicago Center
Thu 09:30:56 AM 42.4164 -88.6358 112° Southeast 393 452 11,100 -1,113 Descending Chicago Center
Thu 09:31:58 AM 42.3781 -88.5131 113° Southeast 365 420 10,100 -532 Descending Chicago Center
Thu 09:33:00 AM 42.3394 -88.3936 114° Southeast 353 406 10,000 -48 Descending Chicago Center
Thu 09:34:02 AM 42.2692 -88.2711 128° Southeast 363 418 10,000 -48 Level Chicago Center
Thu 09:35:04 AM 42.2103 -88.1711 128° Southeast 343 395 9,900 -532 Descending Chicago Center
Thu 09:36:06 AM 42.1514 -88.0964 137° Southeast 299 344 8,900 -968 Descending Chicago Center
Thu 09:37:08 AM 42.1067 -88.0108 125° Southeast 290 334 7,900 -838 Descending Chicago Center
Thu 09:38:22 AM 42.0833 -87.8833 104° East 260 299 7,000 -403 Descending Chicago TRACON
Thu 09:39:22 AM 42.0667 -87.8000 105° East 254 292 7,000 -50 Level Chicago TRACON
Thu 09:40:22 AM 42.0667 -87.7000 90° East 233 268 6,900 -750 Descending Chicago TRACON
Thu 09:41:22 AM 42.0667 -87.6167 90° East 200 230 5,500 -1,000 Descending Chicago TRACON
Thu 09:42:22 AM 42.0667 -87.5500 90° East 197 227 4,900 -750 Descending Chicago TRACON
Thu 09:43:22 AM 42.0667 -87.4833 90° East 199 229 4,000 -450 Descending Chicago TRACON
Thu 09:44:22 AM 42.0500 -87.4167 109° East 203 234 4,000  Level Chicago TRACON
Thu 09:45:22 AM 42.0000 -87.4167 180° South 180 207 4,000  Level Chicago TRACON
Thu 09:46:22 AM 41.9833 -87.4667 246° West 145 167 4,000  Level Chicago TRACON
Thu 09:47:22 AM 41.9833 -87.5167 270° West 143 165 4,000  Level Chicago TRACON
Thu 09:48:23 AM 41.9833 -87.5667 270° West 140 161 4,000  Level Chicago TRACON
Thu 09:49:23 AM 41.9833 -87.6167 270° West 139 160 4,000  Level Chicago TRACON
Thu 09:50:23 AM 41.9833 -87.6667 270° West 140 161 4,000 -368 Level Chicago TRACON
Thu 09:51:17 AM 41.9833 -87.7167 270° West 144 166 3,300 -810 Descending Chicago TRACON
Thu 09:52:29 AM 41.9833 -87.7833 270° West 142 163 2,300 -773 Descending Chicago TRACON
Thu 09:53:29 AM 41.9833 -87.8333 270° West 116 133 1,600 -700 Descending Chicago TRACON

Login

Don't have an account? Register now (free) for customized features, flight alerts, and more!